Time;durP1;ratioP1;P1;durP2;ratioP2;P2;SDS_P1;SDS_P2;PMS_P1;PMS_P2;Temp;Humidity;BMP_temperature;BMP_pressure;BME280_temperature;BME280_humidity;BME280_pressure;Samples;Min_cycle;Max_cycle;Signal;HPM_P1;HPM_P2
2022/12/18 00:01:17;;;;;;;50.35;21.98;;;;;;;;;;4935606;29;20028;-78
2022/12/18 00:03:45;;;;;;;50.17;21.67;;;;;;;;;;4934554;29;20031;-75
2022/12/18 00:06:11;;;;;;;51.65;20.33;;;;;;;;;;4932562;29;20111;-76
2022/12/18 00:08:37;;;;;;;41.38;19.65;;;;;;;;;;4925481;29;20043;-77
2022/12/18 00:11:06;;;;;;;52.47;23.83;;;;;;;;;;4930634;29;20032;-77
2022/12/18 00:13:32;;;;;;;44.72;20.20;;;;;;;;;;4933172;29;20449;-76
2022/12/18 00:16:10;;;;;;;39.40;18.30;;;;;;;;;;4931286;29;20031;-77
2022/12/18 00:18:36;;;;;;;40.17;18.80;;;;;;;;;;4930881;29;20031;-77
2022/12/18 00:21:04;;;;;;;42.08;18.42;;;;;;;;;;4918539;29;20711;-78
2022/12/18 00:23:31;;;;;;;44.20;20.08;;;;;;;;;;4937301;29;20047;-77
2022/12/18 00:26:07;;;;;;;42.75;17.85;;;;;;;;;;4936756;29;20031;-76
2022/12/18 00:28:34;;;;;;;40.95;17.92;;;;;;;;;;4935775;29;20044;-76
2022/12/18 00:31:05;;;;;;;37.38;17.63;;;;;;;;;;4932263;29;20035;-77
2022/12/18 00:33:31;;;;;;;43.58;19.08;;;;;;;;;;4936346;29;20091;-77
2022/12/18 00:36:05;;;;;;;40.25;18.25;;;;;;;;;;4935197;29;20031;-77
2022/12/18 00:38:32;;;;;;;38.22;18.08;;;;;;;;;;4940325;29;20095;-78
2022/12/18 00:40:58;;;;;;;34.00;16.88;;;;;;;;;;4937202;29;20028;-78
2022/12/18 00:43:24;;;;;;;40.13;18.25;;;;;;;;;;4935118;29;20058;-77
2022/12/18 00:45:51;;;;;;;45.00;18.75;;;;;;;;;;4919422;29;20518;-78
2022/12/18 00:48:16;;;;;;;43.47;18.45;;;;;;;;;;4916369;29;20047;-77
2022/12/18 00:50:42;;;;;;;45.30;19.73;;;;;;;;;;4936344;29;20114;-77
2022/12/18 00:53:09;;;;;;;42.55;18.42;;;;;;;;;;4935124;29;20123;-77
2022/12/18 00:55:37;;;;;;;45.40;20.23;;;;;;;;;;4935341;29;20123;-77
2022/12/18 00:58:03;;;;;;;50.17;20.40;;;;;;;;;;4933635;29;20401;-76
2022/12/18 01:00:29;;;;;;;49.60;19.95;;;;;;;;;;4926364;29;20031;-76
2022/12/18 01:02:55;;;;;;;46.92;20.10;;;;;;;;;;4929585;29;20454;-76
2022/12/18 01:05:23;;;;;;;47.60;20.55;;;;;;;;;;4934902;29;20039;-76
2022/12/18 01:07:49;;;;;;;43.97;18.52;;;;;;;;;;4935907;29;20470;-75
2022/12/18 01:10:15;;;;;;;45.58;19.13;;;;;;;;;;4935962;29;20078;-77
2022/12/18 01:12:40;;;;;;;43.70;17.98;;;;;;;;;;4928078;29;20043;-78
2022/12/18 01:15:07;;;;;;;48.42;18.90;;;;;;;;;;4935238;29;20028;-77
2022/12/18 01:17:34;;;;;;;43.53;18.48;;;;;;;;;;4934711;29;20023;-77
2022/12/18 01:20:00;;;;;;;41.40;18.50;;;;;;;;;;4934328;29;20035;-76
2022/12/18 01:22:26;;;;;;;43.33;18.08;;;;;;;;;;4934740;29;20054;-77
2022/12/18 01:24:52;;;;;;;40.40;17.67;;;;;;;;;;4933533;29;20052;-77
2022/12/18 01:27:21;;;;;;;40.20;18.10;;;;;;;;;;4940509;29;20090;-77
2022/12/18 01:29:47;;;;;;;43.25;17.98;;;;;;;;;;4934601;29;20106;-78
2022/12/18 01:32:13;;;;;;;47.83;19.15;;;;;;;;;;4934682;29;20035;-77
2022/12/18 01:34:38;;;;;;;42.80;19.35;;;;;;;;;;4933843;29;20039;-77
2022/12/18 01:37:05;;;;;;;47.80;19.08;;;;;;;;;;4935279;29;20031;-77
2022/12/18 01:39:31;;;;;;;42.97;18.85;;;;;;;;;;4932805;29;20032;-77
2022/12/18 01:42:02;;;;;;;44.55;19.38;;;;;;;;;;4935519;29;20512;-77
2022/12/18 01:45:02;;;;;;;49.35;20.15;;;;;;;;;;4931585;28;20079;-77
2022/12/18 01:47:28;;;;;;;40.30;19.00;;;;;;;;;;4933770;29;20059;-75
2022/12/18 01:49:55;;;;;;;45.35;19.30;;;;;;;;;;4933903;29;20031;-76
2022/12/18 01:52:24;;;;;;;56.65;21.42;;;;;;;;;;4935543;29;20094;-76
2022/12/18 01:54:51;;;;;;;52.35;20.98;;;;;;;;;;4928773;29;20192;-76
2022/12/18 01:57:18;;;;;;;64.00;23.63;;;;;;;;;;4935255;28;20485;-76
2022/12/18 01:59:50;;;;;;;46.17;19.13;;;;;;;;;;4934885;29;20474;-76
2022/12/18 02:02:16;;;;;;;50.97;19.13;;;;;;;;;;4935136;29;20524;-76
2022/12/18 02:04:43;;;;;;;53.40;19.90;;;;;;;;;;4949456;29;20122;-75
2022/12/18 02:07:31;;;;;;;49.58;19.58;;;;;;;;;;4925610;29;20032;-76
2022/12/18 02:10:05;;;;;;;51.35;19.15;;;;;;;;;;4933971;29;20067;-76
2022/12/18 02:13:00;;;;;;;41.40;16.98;;;;;;;;;;4931450;29;20086;-76
2022/12/18 02:15:43;;;;;;;40.58;17.30;;;;;;;;;;4932619;29;20379;-76
2022/12/18 02:18:23;;;;;;;44.45;17.70;;;;;;;;;;4929544;29;20043;-75
2022/12/18 02:20:56;;;;;;;54.58;18.80;;;;;;;;;;4923909;29;20051;-75
2022/12/18 02:23:56;;;;;;;45.22;18.38;;;;;;;;;;4935242;29;20447;-75
2022/12/18 02:26:41;;;;;;;42.88;16.13;;;;;;;;;;4919267;29;20050;-74
2022/12/18 02:29:37;;;;;;;33.60;15.23;;;;;;;;;;4923590;29;20035;-76
2022/12/18 02:32:09;;;;;;;43.78;16.88;;;;;;;;;;4929656;29;20565;-77
2022/12/18 02:34:39;;;;;;;40.53;16.85;;;;;;;;;;4928520;29;20498;-76
2022/12/18 02:37:14;;;;;;;41.70;17.08;;;;;;;;;;4926448;29;20047;-75
2022/12/18 02:39:42;;;;;;;43.95;18.20;;;;;;;;;;4930289;29;20036;-75
2022/12/18 02:42:11;;;;;;;37.03;15.70;;;;;;;;;;4928581;29;20516;-76
2022/12/18 02:44:44;;;;;;;39.80;16.88;;;;;;;;;;4927310;29;20051;-77
2022/12/18 02:47:13;;;;;;;37.70;16.15;;;;;;;;;;4927942;29;20383;-77
2022/12/18 02:49:57;;;;;;;34.33;14.95;;;;;;;;;;4929414;29;20064;-76
2022/12/18 02:52:39;;;;;;;33.10;14.98;;;;;;;;;;4928453;29;20130;-77
2022/12/18 02:55:12;;;;;;;33.15;14.45;;;;;;;;;;4934368;28;20496;-77
2022/12/18 02:58:05;;;;;;;31.55;14.15;;;;;;;;;;4928189;29;20036;-77
2022/12/18 03:00:40;;;;;;;33.67;13.48;;;;;;;;;;4930938;28;20138;-77
2022/12/18 03:03:11;;;;;;;36.97;15.57;;;;;;;;;;4944254;28;20044;-77
2022/12/18 03:05:55;;;;;;;32.60;15.88;;;;;;;;;;4943328;29;20122;-78
2022/12/18 03:08:25;;;;;;;31.13;15.25;;;;;;;;;;4929393;29;20130;-76
2022/12/18 03:11:01;;;;;;;32.35;13.85;;;;;;;;;;4927461;29;20050;-78
2022/12/18 03:13:34;;;;;;;32.00;15.07;;;;;;;;;;4944005;29;20055;-77
2022/12/18 03:16:05;;;;;;;31.85;14.45;;;;;;;;;;4927234;29;20044;-77
2022/12/18 03:18:34;;;;;;;33.58;14.43;;;;;;;;;;4943490;28;20043;-78
2022/12/18 03:21:05;;;;;;;31.63;14.10;;;;;;;;;;4928153;29;20055;-77
2022/12/18 03:23:40;;;;;;;28.98;14.57;;;;;;;;;;4926656;29;20052;-77
2022/12/18 03:26:11;;;;;;;31.33;14.15;;;;;;;;;;4931027;29;20040;-77
2022/12/18 03:29:03;;;;;;;27.92;14.25;;;;;;;;;;4925743;29;20032;-77
2022/12/18 03:31:37;;;;;;;27.30;14.00;;;;;;;;;;4930648;29;20036;-77
2022/12/18 03:34:09;;;;;;;24.95;13.20;;;;;;;;;;4947295;28;20039;-77
2022/12/18 03:36:42;;;;;;;24.45;12.95;;;;;;;;;;4945339;28;20533;-76
2022/12/18 03:39:08;;;;;;;27.88;13.75;;;;;;;;;;4930618;29;20060;-77
2022/12/18 03:42:03;;;;;;;26.98;13.23;;;;;;;;;;4931364;29;20039;-77
2022/12/18 03:45:01;;;;;;;24.75;12.57;;;;;;;;;;4925492;29;20497;-77
2022/12/18 03:48:15;;;;;;;27.85;13.07;;;;;;;;;;4931655;29;20046;-77
2022/12/18 03:51:01;;;;;;;25.80;13.15;;;;;;;;;;4924181;29;20044;-76
2022/12/18 03:53:49;;;;;;;24.55;12.43;;;;;;;;;;4947037;28;20051;-77
2022/12/18 03:56:19;;;;;;;26.75;12.88;;;;;;;;;;4932895;29;20059;-77
2022/12/18 03:58:46;;;;;;;27.30;13.63;;;;;;;;;;4940920;29;20030;-77
2022/12/18 04:01:21;;;;;;;29.52;13.52;;;;;;;;;;4928850;29;20055;-77
2022/12/18 04:03:49;;;;;;;27.63;13.43;;;;;;;;;;4929154;29;20038;-76
2022/12/18 04:06:17;;;;;;;25.95;12.10;;;;;;;;;;4931634;29;20056;-76
2022/12/18 04:08:45;;;;;;;26.42;13.73;;;;;;;;;;4913161;29;20095;-76
2022/12/18 04:11:15;;;;;;;23.83;12.43;;;;;;;;;;4921884;29;20024;-77
2022/12/18 04:13:44;;;;;;;25.85;12.32;;;;;;;;;;4931855;29;20031;-77
2022/12/18 04:16:18;;;;;;;24.73;12.07;;;;;;;;;;4931235;29;20115;-77
2022/12/18 04:18:47;;;;;;;24.77;12.90;;;;;;;;;;4947809;29;20071;-77
2022/12/18 04:21:14;;;;;;;24.05;12.88;;;;;;;;;;4915570;29;20036;-77
2022/12/18 04:23:41;;;;;;;24.73;12.45;;;;;;;;;;4932906;29;20548;-77
2022/12/18 04:26:08;;;;;;;23.90;12.45;;;;;;;;;;4933820;29;20046;-76
2022/12/18 04:28:54;;;;;;;29.60;13.20;;;;;;;;;;4929566;29;20060;-78
2022/12/18 04:31:20;;;;;;;25.13;12.68;;;;;;;;;;4933529;29;20044;-77
2022/12/18 04:33:46;;;;;;;24.15;12.15;;;;;;;;;;4948527;29;20083;-76
2022/12/18 04:36:13;;;;;;;30.42;14.35;;;;;;;;;;4949001;28;20043;-76
2022/12/18 04:38:40;;;;;;;26.30;13.07;;;;;;;;;;4947369;28;20031;-77
2022/12/18 04:41:10;;;;;;;25.13;12.38;;;;;;;;;;4948411;29;20075;-77
2022/12/18 04:43:36;;;;;;;28.52;13.45;;;;;;;;;;4933314;29;20066;-77
2022/12/18 04:46:06;;;;;;;25.92;12.90;;;;;;;;;;4932489;29;20028;-78
2022/12/18 04:48:33;;;;;;;25.80;13.13;;;;;;;;;;4934583;29;20083;-77
2022/12/18 04:50:59;;;;;;;24.52;12.43;;;;;;;;;;4934393;29;20054;-77
2022/12/18 04:53:25;;;;;;;26.98;13.15;;;;;;;;;;4936206;29;20031;-77
2022/12/18 04:55:51;;;;;;;27.13;14.13;;;;;;;;;;4935608;29;20032;-76
2022/12/18 04:58:17;;;;;;;24.50;12.48;;;;;;;;;;4934305;28;20034;-77
2022/12/18 05:00:42;;;;;;;26.25;14.15;;;;;;;;;;4936434;29;20035;-75
2022/12/18 05:03:08;;;;;;;28.98;14.15;;;;;;;;;;4933194;29;20044;-77
2022/12/18 05:05:35;;;;;;;27.52;14.63;;;;;;;;;;4937313;29;20032;-77
2022/12/18 05:08:01;;;;;;;33.17;14.90;;;;;;;;;;4937000;29;20039;-77
2022/12/18 05:10:27;;;;;;;28.70;14.75;;;;;;;;;;4936943;29;20152;-76
2022/12/18 05:12:59;;;;;;;29.27;14.70;;;;;;;;;;4936930;29;20094;-76
2022/12/18 05:15:30;;;;;;;31.52;14.40;;;;;;;;;;4937120;29;20068;-77
2022/12/18 05:17:57;;;;;;;28.17;14.43;;;;;;;;;;4937124;29;20039;-77
2022/12/18 05:20:23;;;;;;;28.92;15.05;;;;;;;;;;4936946;29;20050;-76
2022/12/18 05:22:50;;;;;;;29.60;14.43;;;;;;;;;;4936703;29;20040;-76
2022/12/18 05:25:17;;;;;;;28.20;14.55;;;;;;;;;;4920887;29;20525;-76
2022/12/18 05:27:42;;;;;;;28.95;14.05;;;;;;;;;;4917879;29;20068;-76
2022/12/18 05:30:09;;;;;;;25.55;13.77;;;;;;;;;;4917480;29;20056;-76
2022/12/18 05:32:35;;;;;;;27.10;13.65;;;;;;;;;;4917452;29;20432;-76
2022/12/18 05:35:01;;;;;;;30.05;14.18;;;;;;;;;;4917916;29;20158;-77
2022/12/18 05:37:28;;;;;;;31.33;14.40;;;;;;;;;;4917727;29;20032;-76
2022/12/18 05:39:54;;;;;;;29.20;12.77;;;;;;;;;;4917685;29;20031;-77
2022/12/18 05:42:19;;;;;;;28.30;12.90;;;;;;;;;;4917295;29;20133;-76
2022/12/18 05:44:45;;;;;;;31.40;14.57;;;;;;;;;;4917436;29;20028;-76
2022/12/18 05:47:11;;;;;;;29.92;13.57;;;;;;;;;;4916906;29;20119;-76
2022/12/18 05:49:37;;;;;;;31.48;13.15;;;;;;;;;;4916285;29;20186;-76
2022/12/18 05:52:04;;;;;;;30.77;14.52;;;;;;;;;;4917247;29;20043;-76
2022/12/18 05:54:31;;;;;;;30.27;14.88;;;;;;;;;;4917208;29;20036;-76
2022/12/18 05:56:57;;;;;;;33.38;13.88;;;;;;;;;;4917198;29;20163;-76
2022/12/18 05:59:23;;;;;;;36.25;16.15;;;;;;;;;;4917217;29;20067;-76
2022/12/18 06:01:49;;;;;;;32.65;15.68;;;;;;;;;;4917219;29;20067;-76
2022/12/18 06:04:15;;;;;;;31.25;14.85;;;;;;;;;;4917196;29;20036;-76
2022/12/18 06:06:41;;;;;;;30.15;14.45;;;;;;;;;;4917532;29;20044;-76
2022/12/18 06:09:09;;;;;;;24.85;13.20;;;;;;;;;;4917529;29;20105;-76
2022/12/18 06:11:38;;;;;;;30.88;15.00;;;;;;;;;;4919094;29;20063;-76
2022/12/18 06:14:06;;;;;;;29.23;14.38;;;;;;;;;;4935844;29;20042;-76
2022/12/18 06:16:32;;;;;;;28.77;14.38;;;;;;;;;;4935382;29;20036;-76
2022/12/18 06:19:03;;;;;;;27.95;14.70;;;;;;;;;;4933256;29;20075;-77
2022/12/18 06:21:31;;;;;;;29.38;15.00;;;;;;;;;;4931070;29;20042;-76
2022/12/18 06:23:58;;;;;;;35.25;15.50;;;;;;;;;;4935603;29;20053;-78
2022/12/18 06:26:24;;;;;;;31.20;15.60;;;;;;;;;;4934283;29;20453;-77
2022/12/18 06:28:51;;;;;;;29.10;14.93;;;;;;;;;;4934157;29;20032;-77
2022/12/18 06:31:16;;;;;;;32.00;14.30;;;;;;;;;;4935666;29;20039;-76
2022/12/18 06:33:43;;;;;;;28.15;12.90;;;;;;;;;;4935682;29;20024;-77
2022/12/18 06:36:13;;;;;;;29.88;14.13;;;;;;;;;;4935902;29;20038;-77
2022/12/18 06:38:42;;;;;;;29.85;13.98;;;;;;;;;;4935564;29;20036;-76
2022/12/18 06:41:13;;;;;;;27.08;12.88;;;;;;;;;;4934309;29;20027;-77
2022/12/18 06:43:41;;;;;;;34.33;16.08;;;;;;;;;;4934069;29;20355;-76
2022/12/18 06:46:07;;;;;;;30.60;13.20;;;;;;;;;;4935315;29;20058;-76
2022/12/18 06:48:33;;;;;;;31.25;14.73;;;;;;;;;;4934126;29;20099;-75
2022/12/18 06:51:00;;;;;;;31.38;14.50;;;;;;;;;;4935463;29;20031;-76
2022/12/18 06:53:27;;;;;;;30.30;15.13;;;;;;;;;;4935173;29;20039;-77
2022/12/18 06:56:00;;;;;;;31.50;16.80;;;;;;;;;;4933892;29;20490;-76
2022/12/18 06:58:27;;;;;;;33.47;16.52;;;;;;;;;;4933847;29;20038;-77
2022/12/18 07:00:52;;;;;;;34.67;17.00;;;;;;;;;;4933159;29;20038;-76
2022/12/18 07:03:18;;;;;;;37.63;17.02;;;;;;;;;;4935078;29;20036;-76
2022/12/18 07:05:44;;;;;;;34.72;16.50;;;;;;;;;;4935130;29;20027;-75
2022/12/18 07:08:10;;;;;;;31.83;15.45;;;;;;;;;;4934928;29;20482;-76
2022/12/18 07:10:43;;;;;;;39.17;17.08;;;;;;;;;;4935479;29;20028;-76
2022/12/18 07:13:09;;;;;;;32.90;15.82;;;;;;;;;;4935262;29;20036;-77
2022/12/18 07:15:36;;;;;;;31.25;15.95;;;;;;;;;;4918487;29;20127;-77
2022/12/18 07:18:02;;;;;;;37.42;16.35;;;;;;;;;;4935235;29;20043;-76
2022/12/18 07:20:28;;;;;;;36.20;17.98;;;;;;;;;;4934986;29;20019;-76
2022/12/18 07:22:54;;;;;;;36.40;17.95;;;;;;;;;;4935383;29;20426;-75
2022/12/18 07:25:19;;;;;;;32.92;16.27;;;;;;;;;;4932880;29;20050;-75
2022/12/18 07:27:45;;;;;;;30.00;15.95;;;;;;;;;;4933304;29;20513;-76
2022/12/18 07:30:11;;;;;;;30.67;15.30;;;;;;;;;;4932895;29;20032;-75
2022/12/18 07:32:37;;;;;;;36.75;17.08;;;;;;;;;;4934624;29;20035;-75
2022/12/18 07:35:03;;;;;;;28.83;14.75;;;;;;;;;;4934856;29;20035;-74
2022/12/18 07:37:29;;;;;;;36.67;15.50;;;;;;;;;;4934882;29;20032;-76
2022/12/18 07:39:55;;;;;;;31.73;16.13;;;;;;;;;;4934602;29;20103;-77
2022/12/18 07:42:32;;;;;;;32.63;16.92;;;;;;;;;;4933609;29;20095;-74
2022/12/18 07:45:02;;;;;;;31.48;16.73;;;;;;;;;;4934868;29;20040;-76
2022/12/18 07:47:29;;;;;;;33.63;17.35;;;;;;;;;;4934488;29;20040;-77
2022/12/18 07:49:57;;;;;;;37.28;16.10;;;;;;;;;;4934621;29;20461;-75
2022/12/18 07:52:23;;;;;;;29.27;15.38;;;;;;;;;;4934339;29;20114;-74
2022/12/18 07:54:49;;;;;;;29.60;15.25;;;;;;;;;;4934757;29;20055;-74
2022/12/18 07:57:16;;;;;;;29.25;14.63;;;;;;;;;;4934624;29;20054;-75
2022/12/18 07:59:42;;;;;;;23.23;13.52;;;;;;;;;;4934892;29;20023;-77
2022/12/18 08:02:08;;;;;;;24.48;12.75;;;;;;;;;;4934498;29;20032;-77
2022/12/18 08:04:34;;;;;;;27.63;13.80;;;;;;;;;;4932514;29;20058;-77
2022/12/18 08:07:00;;;;;;;24.38;13.27;;;;;;;;;;4949018;29;20031;-74
2022/12/18 08:09:25;;;;;;;26.90;13.77;;;;;;;;;;4953520;28;20049;-76
2022/12/18 08:11:51;;;;;;;30.75;14.43;;;;;;;;;;4956137;28;20055;-75
2022/12/18 08:14:17;;;;;;;28.30;14.73;;;;;;;;;;4949321;28;20106;-75
2022/12/18 08:16:43;;;;;;;30.70;14.98;;;;;;;;;;4937732;29;20036;-74
2022/12/18 08:19:09;;;;;;;29.45;15.40;;;;;;;;;;4937588;29;20031;-75
2022/12/18 08:21:34;;;;;;;28.15;15.13;;;;;;;;;;4934784;29;20398;-76
2022/12/18 08:24:01;;;;;;;24.25;13.85;;;;;;;;;;4931643;29;20481;-75
2022/12/18 08:26:30;;;;;;;26.38;14.68;;;;;;;;;;4936425;29;20056;-73
2022/12/18 08:28:57;;;;;;;32.35;18.65;;;;;;;;;;4937409;29;20449;-75
2022/12/18 08:31:24;;;;;;;33.38;21.50;;;;;;;;;;4937161;29;20035;-75
2022/12/18 08:33:52;;;;;;;22.60;13.02;;;;;;;;;;4951721;29;20481;-76
2022/12/18 08:36:19;;;;;;;35.70;17.40;;;;;;;;;;4935983;29;20032;-74
2022/12/18 08:38:47;;;;;;;25.88;13.75;;;;;;;;;;4935958;28;20038;-74
2022/12/18 08:41:15;;;;;;;25.98;14.60;;;;;;;;;;4935213;29;20040;-75
2022/12/18 08:46:27;;;;;;;26.23;14.57;;;;;;;;;;4933854;29;20042;-74
2022/12/18 08:48:54;;;;;;;29.50;15.38;;;;;;;;;;4935624;29;20025;-72
2022/12/18 08:51:20;;;;;;;26.65;13.80;;;;;;;;;;4936731;28;20042;-73
2022/12/18 08:53:46;;;;;;;27.02;15.25;;;;;;;;;;4936008;29;20035;-75
2022/12/18 08:56:13;;;;;;;29.85;13.82;;;;;;;;;;4937015;29;20043;-73
2022/12/18 08:58:40;;;;;;;26.20;13.95;;;;;;;;;;4936678;28;20038;-74
2022/12/18 09:01:09;;;;;;;28.63;16.05;;;;;;;;;;4936723;29;20058;-75
2022/12/18 09:03:36;;;;;;;28.83;14.70;;;;;;;;;;4927093;29;20063;-73
2022/12/18 09:06:03;;;;;;;29.02;15.88;;;;;;;;;;4929518;29;20067;-76
2022/12/18 09:08:29;;;;;;;30.13;16.58;;;;;;;;;;4936485;29;20402;-74
2022/12/18 09:10:55;;;;;;;26.67;14.10;;;;;;;;;;4936557;29;20045;-74
2022/12/18 09:13:21;;;;;;;25.13;13.77;;;;;;;;;;4933923;29;20526;-74
2022/12/18 09:15:50;;;;;;;24.67;13.75;;;;;;;;;;4935393;29;20086;-74
2022/12/18 09:18:18;;;;;;;27.50;15.40;;;;;;;;;;4934989;29;20024;-74
2022/12/18 09:20:45;;;;;;;26.17;14.55;;;;;;;;;;4933745;29;20383;-74
2022/12/18 09:23:11;;;;;;;24.73;14.05;;;;;;;;;;4933577;29;20386;-74
2022/12/18 09:25:38;;;;;;;28.55;15.48;;;;;;;;;;4922200;28;20035;-73
2022/12/18 09:28:14;;;;;;;28.58;14.80;;;;;;;;;;4936004;29;20039;-74
2022/12/18 09:30:43;;;;;;;25.20;13.75;;;;;;;;;;4927714;28;20459;-73
2022/12/18 09:33:09;;;;;;;25.40;12.95;;;;;;;;;;4917482;29;20024;-72
2022/12/18 09:35:41;;;;;;;22.70;13.57;;;;;;;;;;4917559;29;20402;-72
2022/12/18 09:38:11;;;;;;;24.15;12.55;;;;;;;;;;4917232;29;20111;-74
2022/12/18 09:40:44;;;;;;;26.33;14.57;;;;;;;;;;4917202;29;20036;-73
2022/12/18 09:43:27;;;;;;;22.70;12.17;;;;;;;;;;4922345;29;20035;-74
2022/12/18 09:46:01;;;;;;;20.58;12.35;;;;;;;;;;4935902;29;20047;-73
2022/12/18 09:48:40;;;;;;;22.25;13.32;;;;;;;;;;4935936;29;20530;-73
2022/12/18 09:51:20;;;;;;;25.88;13.18;;;;;;;;;;4920078;29;20118;-73
2022/12/18 09:53:53;;;;;;;24.25;13.48;;;;;;;;;;4916999;29;20067;-74
2022/12/18 09:56:22;;;;;;;23.05;12.75;;;;;;;;;;4916928;29;20035;-74
2022/12/18 09:58:57;;;;;;;21.05;12.07;;;;;;;;;;4931405;29;20053;-72
2022/12/18 10:01:23;;;;;;;22.60;11.77;;;;;;;;;;4916878;29;20131;-74
2022/12/18 10:03:51;;;;;;;24.25;11.77;;;;;;;;;;4917036;29;20036;-73
2022/12/18 10:06:32;;;;;;;25.08;12.05;;;;;;;;;;4916799;29;20032;-72
2022/12/18 10:09:22;;;;;;;32.10;12.32;;;;;;;;;;4926191;29;20043;-73
2022/12/18 10:12:09;;;;;;;21.38;11.18;;;;;;;;;;4935839;29;20035;-73
2022/12/18 10:15:16;;;;;;;23.80;12.02;;;;;;;;;;4935719;29;20453;-74
2022/12/18 10:17:54;;;;;;;19.98;11.10;;;;;;;;;;4921307;29;20523;-72
2022/12/18 10:20:42;;;;;;;24.60;12.70;;;;;;;;;;4935367;29;20114;-74
2022/12/18 10:23:14;;;;;;;20.67;12.45;;;;;;;;;;4935013;29;20039;-72
2022/12/18 10:25:54;;;;;;;31.08;15.75;;;;;;;;;;4935569;29;20122;-73
2022/12/18 10:28:21;;;;;;;34.53;17.33;;;;;;;;;;4935422;29;20046;-73
2022/12/18 10:30:47;;;;;;;31.17;16.63;;;;;;;;;;4935374;29;20028;-74
2022/12/18 10:33:19;;;;;;;30.45;17.13;;;;;;;;;;4934853;29;20032;-72
2022/12/18 10:35:49;;;;;;;39.30;16.85;;;;;;;;;;4935522;29;20060;-73
2022/12/18 10:38:17;;;;;;;48.30;17.15;;;;;;;;;;4935166;29;20043;-73
2022/12/18 10:41:01;;;;;;;33.30;17.25;;;;;;;;;;4935119;29;20128;-73
2022/12/18 10:43:36;;;;;;;36.72;17.33;;;;;;;;;;4935007;29;20032;-73
2022/12/18 10:46:07;;;;;;;24.63;13.75;;;;;;;;;;4934412;28;20458;-74
2022/12/18 10:48:46;;;;;;;25.38;14.50;;;;;;;;;;4934877;29;20095;-74
2022/12/18 10:51:22;;;;;;;29.77;14.07;;;;;;;;;;4934995;29;20119;-75
2022/12/18 10:53:55;;;;;;;41.03;15.18;;;;;;;;;;4934831;29;20111;-74
2022/12/18 10:56:23;;;;;;;33.53;17.13;;;;;;;;;;4934844;28;20040;-75
2022/12/18 10:59:06;;;;;;;49.42;18.27;;;;;;;;;;4949036;29;20037;-76
2022/12/18 11:01:49;;;;;;;29.73;17.25;;;;;;;;;;4934637;29;20106;-74
2022/12/18 11:04:30;;;;;;;28.05;15.65;;;;;;;;;;4934616;29;20043;-73
2022/12/18 11:07:08;;;;;;;34.70;17.30;;;;;;;;;;4933113;29;20050;-75
2022/12/18 11:09:39;;;;;;;32.85;15.65;;;;;;;;;;4934624;29;20170;-74
2022/12/18 11:12:22;;;;;;;40.17;20.80;;;;;;;;;;4931811;29;20027;-76
2022/12/18 11:14:52;;;;;;;39.10;17.92;;;;;;;;;;4933573;29;20036;-74
2022/12/18 11:17:39;;;;;;;35.70;18.13;;;;;;;;;;4934121;29;20022;-75
2022/12/18 11:20:34;;;;;;;36.17;19.40;;;;;;;;;;4928893;29;20177;-75
2022/12/18 11:23:01;;;;;;;59.47;20.88;;;;;;;;;;4931649;29;20040;-75
2022/12/18 11:25:28;;;;;;;37.70;22.48;;;;;;;;;;4933768;28;20039;-76
2022/12/18 11:27:59;;;;;;;45.85;24.20;;;;;;;;;;4933299;28;20497;-76
2022/12/18 11:30:36;;;;;;;50.42;24.58;;;;;;;;;;4932674;29;20095;-75
2022/12/18 11:33:22;;;;;;;42.33;19.90;;;;;;;;;;4932833;29;20127;-76
2022/12/18 11:35:50;;;;;;;44.28;21.00;;;;;;;;;;4933611;29;20027;-76
2022/12/18 11:38:30;;;;;;;33.22;17.83;;;;;;;;;;4931841;29;20106;-75
2022/12/18 11:41:02;;;;;;;34.08;19.02;;;;;;;;;;4932173;29;20397;-74
2022/12/18 11:43:59;;;;;;;26.90;16.02;;;;;;;;;;4926704;29;20510;-74
2022/12/18 11:46:51;;;;;;;31.90;18.17;;;;;;;;;;4914838;29;20056;-75
2022/12/18 11:49:24;;;;;;;30.75;18.33;;;;;;;;;;4929980;29;20047;-74
2022/12/18 11:52:02;;;;;;;45.10;21.37;;;;;;;;;;4934885;29;20035;-74
2022/12/18 11:54:28;;;;;;;39.97;20.08;;;;;;;;;;4935016;29;20282;-75
2022/12/18 11:57:24;;;;;;;39.65;20.48;;;;;;;;;;4937202;29;20433;-76
2022/12/18 12:00:01;;;;;;;41.70;23.77;;;;;;;;;;4937460;29;20462;-75
2022/12/18 12:02:32;;;;;;;34.90;20.63;;;;;;;;;;4937563;29;20502;-74
2022/12/18 12:04:58;;;;;;;41.88;20.95;;;;;;;;;;4937826;28;20078;-75
2022/12/18 12:07:34;;;;;;;44.78;20.88;;;;;;;;;;4937724;29;20103;-75
2022/12/18 12:10:28;;;;;;;33.33;19.15;;;;;;;;;;4936550;29;20125;-75
2022/12/18 12:13:13;;;;;;;35.00;18.35;;;;;;;;;;4937422;29;20078;-74
2022/12/18 12:15:58;;;;;;;38.17;19.58;;;;;;;;;;4935226;29;20082;-75
2022/12/18 12:18:46;;;;;;;43.05;24.27;;;;;;;;;;4935497;29;20091;-74
2022/12/18 12:21:28;;;;;;;36.28;21.17;;;;;;;;;;4937370;29;20043;-73
2022/12/18 12:24:12;;;;;;;44.10;22.38;;;;;;;;;;4936187;29;20052;-75
2022/12/18 12:26:44;;;;;;;39.05;21.08;;;;;;;;;;4937836;29;20122;-74
2022/12/18 12:29:37;;;;;;;33.97;20.38;;;;;;;;;;4936322;29;20054;-74
2022/12/18 12:32:22;;;;;;;41.53;23.27;;;;;;;;;;4936756;29;20038;-74
2022/12/18 12:35:06;;;;;;;42.42;22.98;;;;;;;;;;4937558;29;20035;-75
2022/12/18 12:37:50;;;;;;;;;;;;;;;;;;4937100;29;20027;-74
2022/12/18 12:40:19;;;;;;;40.45;18.83;;;;;;;;;;4925631;29;19949;-74
2022/12/18 12:43:13;;;;;;;42.55;19.30;;;;;;;;;;4923801;29;20032;-75
2022/12/18 12:45:50;;;;;;;;;;;;;;;;;;4935674;29;20482;-75
2022/12/18 12:48:20;;;;;;;31.17;16.85;;;;;;;;;;4933513;29;19929;-75
2022/12/18 12:50:48;;;;;;;31.90;16.92;;;;;;;;;;4935396;29;20090;-75
2022/12/18 12:53:37;;;;;;;30.95;20.30;;;;;;;;;;4932054;29;20020;-74
2022/12/18 12:56:05;;;;;;;37.67;19.77;;;;;;;;;;4937057;29;20046;-75
2022/12/18 12:59:12;;;;;;;34.83;18.85;;;;;;;;;;4935848;29;20031;-75
2022/12/18 13:01:54;;;;;;;34.03;19.02;;;;;;;;;;4936417;29;20058;-75
2022/12/18 13:04:44;;;;;;;41.17;18.98;;;;;;;;;;4936804;29;20028;-74
2022/12/18 13:07:18;;;;;;;35.28;20.33;;;;;;;;;;4945808;29;20055;-76
2022/12/18 13:10:22;;;;;;;34.67;18.50;;;;;;;;;;4948170;29;20051;-74
2022/12/18 13:13:03;;;;;;;32.35;18.25;;;;;;;;;;4936053;29;20035;-74
2022/12/18 13:15:31;;;;;;;57.78;31.23;;;;;;;;;;4935742;29;20118;-74
2022/12/18 13:18:14;;;;;;;47.97;23.65;;;;;;;;;;4936843;29;20044;-74
2022/12/18 13:21:00;;;;;;;40.75;20.25;;;;;;;;;;4929223;29;20028;-75
2022/12/18 13:23:29;;;;;;;33.60;19.35;;;;;;;;;;4924982;29;20569;-74
2022/12/18 13:26:18;;;;;;;41.67;19.90;;;;;;;;;;4904034;29;20043;-75
2022/12/18 13:28:47;;;;;;;43.40;19.85;;;;;;;;;;4931479;29;20052;-75
2022/12/18 13:31:40;;;;;;;39.63;21.05;;;;;;;;;;4926482;29;20083;-75
2022/12/18 13:34:27;;;;;;;36.28;20.65;;;;;;;;;;4935129;29;20119;-75
2022/12/18 13:36:55;;;;;;;60.90;22.33;;;;;;;;;;4936149;29;20050;-75
2022/12/18 13:39:24;;;;;;;41.80;21.00;;;;;;;;;;4936104;29;20030;-75
2022/12/18 13:43:12;;;;;;;55.65;23.23;;;;;;;;;;4933725;29;20036;-75
2022/12/18 13:44:59;;;;;;;32.88;15.82;;;;;;;;;;4925973;29;20036;-75
2022/12/18 13:47:32;;;;;;;31.63;16.88;;;;;;;;;;4934325;29;20020;-74
2022/12/18 13:49:58;;;;;;;26.67;16.37;;;;;;;;;;4935192;29;20066;-75
2022/12/18 13:52:33;;;;;;;36.85;18.70;;;;;;;;;;4936037;29;20043;-75
2022/12/18 13:55:01;;;;;;;41.08;19.85;;;;;;;;;;4933920;29;20036;-75
2022/12/18 13:57:30;;;;;;;39.38;18.10;;;;;;;;;;4931167;29;20016;-74
2022/12/18 13:59:57;;;;;;;43.25;19.15;;;;;;;;;;4935701;29;20036;-74
2022/12/18 14:02:25;;;;;;;29.13;16.73;;;;;;;;;;4932440;29;20541;-74
2022/12/18 14:04:52;;;;;;;28.77;16.20;;;;;;;;;;4933186;28;20156;-75
2022/12/18 14:07:25;;;;;;;31.15;17.73;;;;;;;;;;4931565;29;20438;-75
2022/12/18 14:09:56;;;;;;;34.03;17.02;;;;;;;;;;4943110;29;20118;-75
2022/12/18 14:18:46;;;;;;;25.55;15.60;;;;;;;;;;4480200;29;20464;-74
2022/12/18 14:21:32;;;;;;;28.10;15.50;;;;;;;;;;4910563;29;20045;-75
2022/12/18 14:24:16;;;;;;;27.73;15.68;;;;;;;;;;4914433;29;20024;-76
2022/12/18 14:26:43;;;;;;;33.92;16.08;;;;;;;;;;4914227;29;20064;-75
2022/12/18 14:29:23;;;;;;;28.33;16.13;;;;;;;;;;4911428;29;20165;-75
2022/12/18 14:32:24;;;;;;;29.80;16.42;;;;;;;;;;4909684;29;20039;-75
2022/12/18 14:34:52;;;;;;;27.42;15.90;;;;;;;;;;4926862;29;20039;-75
2022/12/18 14:37:23;;;;;;;28.40;15.57;;;;;;;;;;4908817;29;20028;-75
2022/12/18 14:39:59;;;;;;;29.08;15.80;;;;;;;;;;4914356;29;20462;-77
2022/12/18 14:42:28;;;;;;;28.20;15.43;;;;;;;;;;4914669;29;20039;-75
2022/12/18 14:45:33;;;;;;;32.97;16.30;;;;;;;;;;4912600;29;20054;-75
2022/12/18 14:48:00;;;;;;;32.47;15.57;;;;;;;;;;4911424;29;20115;-75
2022/12/18 14:50:26;;;;;;;30.13;15.70;;;;;;;;;;4910808;29;20118;-73
2022/12/18 14:52:55;;;;;;;27.55;16.13;;;;;;;;;;4914343;29;20486;-75
2022/12/18 14:55:24;;;;;;;27.65;16.33;;;;;;;;;;4913806;29;20043;-75
2022/12/18 14:57:53;;;;;;;29.15;16.92;;;;;;;;;;4913175;29;20040;-75